sensor_id;sensor_type;location;lat;lon;timestamp;P1;durP1;ratioP1;P2;durP2;ratioP2
15831;SDS011;8016;49.928;9.372;2023-02-15T00:00:21;46.23;;;24.13;;
15831;SDS011;8016;49.928;9.372;2023-02-15T00:02:47;52.43;;;23.67;;
15831;SDS011;8016;49.928;9.372;2023-02-15T00:05:13;53.17;;;24.83;;
15831;SDS011;8016;49.928;9.372;2023-02-15T00:07:39;46.53;;;25.07;;
15831;SDS011;8016;49.928;9.372;2023-02-15T00:10:05;54.50;;;23.13;;
15831;SDS011;8016;49.928;9.372;2023-02-15T00:12:31;58.10;;;25.07;;
15831;SDS011;8016;49.928;9.372;2023-02-15T00:14:57;71.33;;;25.77;;
15831;SDS011;8016;49.928;9.372;2023-02-15T00:17:23;60.23;;;24.70;;
15831;SDS011;8016;49.928;9.372;2023-02-15T00:19:49;64.70;;;26.50;;
15831;SDS011;8016;49.928;9.372;2023-02-15T00:22:15;61.50;;;26.50;;
15831;SDS011;8016;49.928;9.372;2023-02-15T00:24:41;65.07;;;25.43;;
15831;SDS011;8016;49.928;9.372;2023-02-15T00:27:07;64.43;;;26.30;;
15831;SDS011;8016;49.928;9.372;2023-02-15T00:29:34;63.03;;;27.13;;
15831;SDS011;8016;49.928;9.372;2023-02-15T00:32:00;55.83;;;25.87;;
15831;SDS011;8016;49.928;9.372;2023-02-15T00:34:26;62.10;;;25.00;;
15831;SDS011;8016;49.928;9.372;2023-02-15T00:36:52;51.00;;;26.03;;
15831;SDS011;8016;49.928;9.372;2023-02-15T00:39:19;47.03;;;23.87;;
15831;SDS011;8016;49.928;9.372;2023-02-15T00:41:45;45.43;;;23.73;;
15831;SDS011;8016;49.928;9.372;2023-02-15T00:44:11;44.77;;;23.27;;
15831;SDS011;8016;49.928;9.372;2023-02-15T00:46:38;45.67;;;24.47;;
15831;SDS011;8016;49.928;9.372;2023-02-15T00:49:04;48.47;;;24.87;;
15831;SDS011;8016;49.928;9.372;2023-02-15T00:51:30;45.47;;;24.17;;
15831;SDS011;8016;49.928;9.372;2023-02-15T00:53:56;48.30;;;25.63;;
15831;SDS011;8016;49.928;9.372;2023-02-15T00:56:22;48.77;;;23.67;;
15831;SDS011;8016;49.928;9.372;2023-02-15T00:58:48;51.47;;;23.93;;
15831;SDS011;8016;49.928;9.372;2023-02-15T01:01:15;56.27;;;24.67;;
15831;SDS011;8016;49.928;9.372;2023-02-15T01:03:41;53.33;;;24.20;;
15831;SDS011;8016;49.928;9.372;2023-02-15T01:06:07;76.10;;;24.83;;
15831;SDS011;8016;49.928;9.372;2023-02-15T01:08:33;54.97;;;24.10;;
15831;SDS011;8016;49.928;9.372;2023-02-15T01:11:06;78.00;;;24.07;;
15831;SDS011;8016;49.928;9.372;2023-02-15T01:13:33;44.93;;;23.37;;
15831;SDS011;8016;49.928;9.372;2023-02-15T01:15:59;51.30;;;23.13;;
15831;SDS011;8016;49.928;9.372;2023-02-15T01:18:26;52.33;;;24.23;;
15831;SDS011;8016;49.928;9.372;2023-02-15T01:20:52;60.20;;;25.13;;
15831;SDS011;8016;49.928;9.372;2023-02-15T01:23:18;44.27;;;23.07;;
15831;SDS011;8016;49.928;9.372;2023-02-15T01:25:44;51.87;;;24.23;;
15831;SDS011;8016;49.928;9.372;2023-02-15T01:28:10;51.57;;;25.43;;
15831;SDS011;8016;49.928;9.372;2023-02-15T01:30:40;49.73;;;24.37;;
15831;SDS011;8016;49.928;9.372;2023-02-15T01:33:06;48.67;;;23.80;;
15831;SDS011;8016;49.928;9.372;2023-02-15T01:35:32;48.33;;;23.47;;
15831;SDS011;8016;49.928;9.372;2023-02-15T01:37:58;53.80;;;29.23;;
15831;SDS011;8016;49.928;9.372;2023-02-15T01:40:24;53.57;;;24.50;;
15831;SDS011;8016;49.928;9.372;2023-02-15T01:42:54;44.20;;;22.47;;
15831;SDS011;8016;49.928;9.372;2023-02-15T01:47:48;56.07;;;24.60;;
15831;SDS011;8016;49.928;9.372;2023-02-15T01:50:16;50.77;;;23.73;;
15831;SDS011;8016;49.928;9.372;2023-02-15T01:55:22;49.37;;;23.80;;
15831;SDS011;8016;49.928;9.372;2023-02-15T01:57:49;41.67;;;22.07;;
15831;SDS011;8016;49.928;9.372;2023-02-15T02:00:15;46.53;;;23.60;;
15831;SDS011;8016;49.928;9.372;2023-02-15T02:02:42;50.63;;;24.33;;
15831;SDS011;8016;49.928;9.372;2023-02-15T02:05:09;57.17;;;22.40;;
15831;SDS011;8016;49.928;9.372;2023-02-15T02:07:36;46.77;;;22.40;;
15831;SDS011;8016;49.928;9.372;2023-02-15T02:10:05;52.57;;;23.30;;
15831;SDS011;8016;49.928;9.372;2023-02-15T02:12:31;56.63;;;24.20;;
15831;SDS011;8016;49.928;9.372;2023-02-15T02:14:58;49.20;;;23.23;;
15831;SDS011;8016;49.928;9.372;2023-02-15T02:30:34;76.77;;;24.60;;
15831;SDS011;8016;49.928;9.372;2023-02-15T02:33:07;51.77;;;23.20;;
15831;SDS011;8016;49.928;9.372;2023-02-15T02:35:48;52.80;;;23.53;;
15831;SDS011;8016;49.928;9.372;2023-02-15T02:38:27;46.13;;;22.37;;
15831;SDS011;8016;49.928;9.372;2023-02-15T02:41:12;64.20;;;22.13;;
15831;SDS011;8016;49.928;9.372;2023-02-15T02:43:48;68.67;;;22.73;;
15831;SDS011;8016;49.928;9.372;2023-02-15T02:46:22;56.80;;;23.23;;
15831;SDS011;8016;49.928;9.372;2023-02-15T02:48:50;51.93;;;20.97;;
15831;SDS011;8016;49.928;9.372;2023-02-15T02:51:16;63.50;;;24.17;;
15831;SDS011;8016;49.928;9.372;2023-02-15T02:53:47;63.33;;;22.17;;
15831;SDS011;8016;49.928;9.372;2023-02-15T02:56:17;41.40;;;21.77;;
15831;SDS011;8016;49.928;9.372;2023-02-15T02:58:46;38.30;;;20.63;;
15831;SDS011;8016;49.928;9.372;2023-02-15T03:03:59;51.67;;;21.47;;
15831;SDS011;8016;49.928;9.372;2023-02-15T03:09:03;38.10;;;19.13;;
15831;SDS011;8016;49.928;9.372;2023-02-15T03:11:32;34.70;;;19.17;;
15831;SDS011;8016;49.928;9.372;2023-02-15T03:13:58;39.13;;;19.63;;
15831;SDS011;8016;49.928;9.372;2023-02-15T03:16:24;41.67;;;18.90;;
15831;SDS011;8016;49.928;9.372;2023-02-15T03:18:53;39.30;;;18.87;;
15831;SDS011;8016;49.928;9.372;2023-02-15T03:21:24;51.60;;;18.73;;
15831;SDS011;8016;49.928;9.372;2023-02-15T03:23:52;37.80;;;19.13;;
15831;SDS011;8016;49.928;9.372;2023-02-15T03:26:20;36.67;;;18.73;;
15831;SDS011;8016;49.928;9.372;2023-02-15T03:28:47;33.33;;;18.20;;
15831;SDS011;8016;49.928;9.372;2023-02-15T03:31:14;30.23;;;16.97;;
15831;SDS011;8016;49.928;9.372;2023-02-15T03:33:43;35.03;;;16.83;;
15831;SDS011;8016;49.928;9.372;2023-02-15T03:36:24;32.03;;;17.37;;
15831;SDS011;8016;49.928;9.372;2023-02-15T03:39:10;34.77;;;16.10;;
15831;SDS011;8016;49.928;9.372;2023-02-15T03:41:40;27.00;;;15.57;;
15831;SDS011;8016;49.928;9.372;2023-02-15T03:44:07;27.73;;;15.77;;
15831;SDS011;8016;49.928;9.372;2023-02-15T03:46:45;30.87;;;14.87;;
15831;SDS011;8016;49.928;9.372;2023-02-15T03:49:17;37.13;;;15.67;;
15831;SDS011;8016;49.928;9.372;2023-02-15T03:51:46;26.63;;;15.60;;
15831;SDS011;8016;49.928;9.372;2023-02-15T03:54:14;25.77;;;15.43;;
15831;SDS011;8016;49.928;9.372;2023-02-15T03:57:01;26.83;;;15.70;;
15831;SDS011;8016;49.928;9.372;2023-02-15T03:59:46;26.23;;;15.27;;
15831;SDS011;8016;49.928;9.372;2023-02-15T04:02:34;25.13;;;14.80;;
15831;SDS011;8016;49.928;9.372;2023-02-15T04:05:03;25.70;;;14.83;;
15831;SDS011;8016;49.928;9.372;2023-02-15T04:07:29;26.20;;;15.73;;
15831;SDS011;8016;49.928;9.372;2023-02-15T04:09:55;22.40;;;13.90;;
15831;SDS011;8016;49.928;9.372;2023-02-15T04:12:40;22.03;;;14.27;;
15831;SDS011;8016;49.928;9.372;2023-02-15T04:15:06;20.40;;;13.67;;
15831;SDS011;8016;49.928;9.372;2023-02-15T04:17:51;20.30;;;13.33;;
15831;SDS011;8016;49.928;9.372;2023-02-15T04:20:16;19.87;;;13.10;;
15831;SDS011;8016;49.928;9.372;2023-02-15T04:23:05;21.73;;;13.53;;
15831;SDS011;8016;49.928;9.372;2023-02-15T04:25:49;22.80;;;13.47;;
15831;SDS011;8016;49.928;9.372;2023-02-15T04:28:15;21.13;;;13.40;;
15831;SDS011;8016;49.928;9.372;2023-02-15T04:30:41;20.60;;;12.90;;
15831;SDS011;8016;49.928;9.372;2023-02-15T04:33:07;22.03;;;12.47;;
15831;SDS011;8016;49.928;9.372;2023-02-15T04:35:33;19.70;;;12.07;;
15831;SDS011;8016;49.928;9.372;2023-02-15T04:37:59;23.70;;;13.77;;
15831;SDS011;8016;49.928;9.372;2023-02-15T04:40:25;20.87;;;12.37;;
15831;SDS011;8016;49.928;9.372;2023-02-15T04:42:51;24.80;;;14.73;;
15831;SDS011;8016;49.928;9.372;2023-02-15T04:45:17;32.77;;;15.47;;
15831;SDS011;8016;49.928;9.372;2023-02-15T04:47:43;25.23;;;13.93;;
15831;SDS011;8016;49.928;9.372;2023-02-15T04:50:09;31.00;;;15.13;;
15831;SDS011;8016;49.928;9.372;2023-02-15T04:52:35;50.53;;;14.93;;
15831;SDS011;8016;49.928;9.372;2023-02-15T04:55:01;31.73;;;14.93;;
15831;SDS011;8016;49.928;9.372;2023-02-15T04:57:28;35.83;;;14.87;;
15831;SDS011;8016;49.928;9.372;2023-02-15T04:59:54;53.83;;;15.00;;
15831;SDS011;8016;49.928;9.372;2023-02-15T05:02:20;26.27;;;14.60;;
15831;SDS011;8016;49.928;9.372;2023-02-15T05:04:46;28.93;;;15.40;;
15831;SDS011;8016;49.928;9.372;2023-02-15T05:07:12;26.30;;;14.73;;
15831;SDS011;8016;49.928;9.372;2023-02-15T05:09:39;34.30;;;15.17;;
15831;SDS011;8016;49.928;9.372;2023-02-15T05:12:05;24.07;;;14.13;;
15831;SDS011;8016;49.928;9.372;2023-02-15T05:14:31;44.30;;;14.43;;
15831;SDS011;8016;49.928;9.372;2023-02-15T05:16:57;24.63;;;14.07;;
15831;SDS011;8016;49.928;9.372;2023-02-15T05:19:26;28.37;;;15.00;;
15831;SDS011;8016;49.928;9.372;2023-02-15T05:21:52;30.03;;;15.00;;
15831;SDS011;8016;49.928;9.372;2023-02-15T05:24:18;28.73;;;16.67;;
15831;SDS011;8016;49.928;9.372;2023-02-15T05:27:02;33.80;;;17.47;;
15831;SDS011;8016;49.928;9.372;2023-02-15T05:29:47;28.97;;;15.63;;
15831;SDS011;8016;49.928;9.372;2023-02-15T05:32:13;43.13;;;17.83;;
15831;SDS011;8016;49.928;9.372;2023-02-15T05:34:39;29.70;;;15.80;;
15831;SDS011;8016;49.928;9.372;2023-02-15T05:37:05;61.27;;;19.70;;
15831;SDS011;8016;49.928;9.372;2023-02-15T05:39:32;34.07;;;16.73;;
15831;SDS011;8016;49.928;9.372;2023-02-15T05:41:59;31.07;;;15.20;;
15831;SDS011;8016;49.928;9.372;2023-02-15T05:44:25;48.70;;;15.77;;
15831;SDS011;8016;49.928;9.372;2023-02-15T05:46:50;26.83;;;15.40;;
15831;SDS011;8016;49.928;9.372;2023-02-15T05:49:16;35.70;;;16.73;;
15831;SDS011;8016;49.928;9.372;2023-02-15T05:51:42;25.77;;;14.80;;
15831;SDS011;8016;49.928;9.372;2023-02-15T05:54:08;29.40;;;15.27;;
15831;SDS011;8016;49.928;9.372;2023-02-15T05:56:34;23.93;;;14.47;;
15831;SDS011;8016;49.928;9.372;2023-02-15T05:59:00;25.70;;;15.93;;
15831;SDS011;8016;49.928;9.372;2023-02-15T06:01:26;28.47;;;16.23;;
15831;SDS011;8016;49.928;9.372;2023-02-15T06:03:52;31.23;;;17.60;;
15831;SDS011;8016;49.928;9.372;2023-02-15T06:06:19;45.00;;;19.50;;
15831;SDS011;8016;49.928;9.372;2023-02-15T06:08:45;35.20;;;16.57;;
15831;SDS011;8016;49.928;9.372;2023-02-15T06:11:11;29.30;;;15.03;;
15831;SDS011;8016;49.928;9.372;2023-02-15T06:13:37;47.17;;;14.80;;
15831;SDS011;8016;49.928;9.372;2023-02-15T06:16:03;30.57;;;15.00;;
15831;SDS011;8016;49.928;9.372;2023-02-15T06:18:29;27.73;;;15.33;;
15831;SDS011;8016;49.928;9.372;2023-02-15T06:20:55;29.77;;;15.20;;
15831;SDS011;8016;49.928;9.372;2023-02-15T06:23:21;40.23;;;14.77;;
15831;SDS011;8016;49.928;9.372;2023-02-15T06:25:47;32.37;;;16.37;;
15831;SDS011;8016;49.928;9.372;2023-02-15T06:28:13;32.73;;;17.10;;
15831;SDS011;8016;49.928;9.372;2023-02-15T06:30:39;46.03;;;21.20;;
15831;SDS011;8016;49.928;9.372;2023-02-15T06:33:11;36.83;;;17.53;;
15831;SDS011;8016;49.928;9.372;2023-02-15T06:35:40;29.00;;;15.87;;
15831;SDS011;8016;49.928;9.372;2023-02-15T06:38:06;42.83;;;16.03;;
15831;SDS011;8016;49.928;9.372;2023-02-15T06:40:32;32.17;;;17.83;;
15831;SDS011;8016;49.928;9.372;2023-02-15T06:42:58;31.43;;;16.23;;
15831;SDS011;8016;49.928;9.372;2023-02-15T06:45:24;29.30;;;16.43;;
15831;SDS011;8016;49.928;9.372;2023-02-15T06:47:50;39.93;;;16.07;;
15831;SDS011;8016;49.928;9.372;2023-02-15T06:50:16;26.73;;;15.57;;
15831;SDS011;8016;49.928;9.372;2023-02-15T06:52:42;26.30;;;15.13;;
15831;SDS011;8016;49.928;9.372;2023-02-15T06:55:08;27.13;;;16.27;;
15831;SDS011;8016;49.928;9.372;2023-02-15T06:57:34;29.37;;;16.23;;
15831;SDS011;8016;49.928;9.372;2023-02-15T07:00:00;27.97;;;16.73;;
15831;SDS011;8016;49.928;9.372;2023-02-15T07:02:26;31.43;;;15.63;;
15831;SDS011;8016;49.928;9.372;2023-02-15T07:04:52;39.43;;;20.83;;
15831;SDS011;8016;49.928;9.372;2023-02-15T07:07:18;29.17;;;16.40;;
15831;SDS011;8016;49.928;9.372;2023-02-15T07:09:44;32.67;;;15.90;;
15831;SDS011;8016;49.928;9.372;2023-02-15T07:12:10;35.23;;;21.43;;
15831;SDS011;8016;49.928;9.372;2023-02-15T07:14:54;31.57;;;16.77;;
15831;SDS011;8016;49.928;9.372;2023-02-15T07:17:20;41.57;;;25.90;;
15831;SDS011;8016;49.928;9.372;2023-02-15T07:19:47;28.67;;;17.73;;
15831;SDS011;8016;49.928;9.372;2023-02-15T07:22:13;25.07;;;15.17;;
15831;SDS011;8016;49.928;9.372;2023-02-15T07:24:38;30.57;;;19.80;;
15831;SDS011;8016;49.928;9.372;2023-02-15T07:27:06;22.83;;;13.17;;
15831;SDS011;8016;49.928;9.372;2023-02-15T07:29:32;27.47;;;15.97;;
15831;SDS011;8016;49.928;9.372;2023-02-15T07:31:58;24.63;;;15.20;;
15831;SDS011;8016;49.928;9.372;2023-02-15T07:34:24;28.73;;;16.60;;
15831;SDS011;8016;49.928;9.372;2023-02-15T07:36:50;31.30;;;18.73;;
15831;SDS011;8016;49.928;9.372;2023-02-15T07:39:16;39.13;;;22.33;;
15831;SDS011;8016;49.928;9.372;2023-02-15T07:41:42;26.37;;;14.83;;
15831;SDS011;8016;49.928;9.372;2023-02-15T07:44:14;31.23;;;18.47;;
15831;SDS011;8016;49.928;9.372;2023-02-15T07:46:40;26.63;;;17.97;;
15831;SDS011;8016;49.928;9.372;2023-02-15T07:49:06;21.20;;;13.70;;
15831;SDS011;8016;49.928;9.372;2023-02-15T07:51:33;23.23;;;14.80;;
15831;SDS011;8016;49.928;9.372;2023-02-15T07:53:58;33.90;;;17.33;;
15831;SDS011;8016;49.928;9.372;2023-02-15T07:56:24;24.07;;;15.73;;
15831;SDS011;8016;49.928;9.372;2023-02-15T07:58:50;23.83;;;16.27;;
15831;SDS011;8016;49.928;9.372;2023-02-15T08:03:45;25.63;;;16.00;;
15831;SDS011;8016;49.928;9.372;2023-02-15T08:06:11;26.67;;;15.47;;
15831;SDS011;8016;49.928;9.372;2023-02-15T08:08:38;27.07;;;17.17;;
15831;SDS011;8016;49.928;9.372;2023-02-15T08:13:52;23.37;;;16.70;;
15831;SDS011;8016;49.928;9.372;2023-02-15T08:18:47;32.07;;;16.70;;
15831;SDS011;8016;49.928;9.372;2023-02-15T08:21:13;26.10;;;15.10;;
15831;SDS011;8016;49.928;9.372;2023-02-15T08:23:39;28.73;;;20.10;;
15831;SDS011;8016;49.928;9.372;2023-02-15T08:26:05;20.83;;;15.03;;
15831;SDS011;8016;49.928;9.372;2023-02-15T08:28:31;21.27;;;14.93;;
15831;SDS011;8016;49.928;9.372;2023-02-15T08:31:05;24.13;;;15.47;;
15831;SDS011;8016;49.928;9.372;2023-02-15T08:33:32;19.53;;;13.83;;
15831;SDS011;8016;49.928;9.372;2023-02-15T08:36:02;22.00;;;14.40;;
15831;SDS011;8016;49.928;9.372;2023-02-15T08:38:28;17.73;;;12.97;;
15831;SDS011;8016;49.928;9.372;2023-02-15T08:40:54;21.83;;;14.37;;
15831;SDS011;8016;49.928;9.372;2023-02-15T08:43:20;19.00;;;12.87;;
15831;SDS011;8016;49.928;9.372;2023-02-15T08:45:46;18.53;;;13.03;;
15831;SDS011;8016;49.928;9.372;2023-02-15T08:48:12;18.80;;;13.13;;
15831;SDS011;8016;49.928;9.372;2023-02-15T08:50:38;17.33;;;13.07;;
15831;SDS011;8016;49.928;9.372;2023-02-15T08:53:04;17.80;;;12.70;;
15831;SDS011;8016;49.928;9.372;2023-02-15T08:55:30;16.87;;;13.30;;
15831;SDS011;8016;49.928;9.372;2023-02-15T08:57:56;18.00;;;13.40;;
15831;SDS011;8016;49.928;9.372;2023-02-15T09:00:23;17.17;;;12.93;;
15831;SDS011;8016;49.928;9.372;2023-02-15T09:02:50;18.33;;;13.30;;
15831;SDS011;8016;49.928;9.372;2023-02-15T09:05:17;15.93;;;12.40;;
15831;SDS011;8016;49.928;9.372;2023-02-15T09:07:43;17.63;;;12.20;;
15831;SDS011;8016;49.928;9.372;2023-02-15T09:10:09;17.40;;;13.43;;
15831;SDS011;8016;49.928;9.372;2023-02-15T09:12:35;17.67;;;13.20;;
15831;SDS011;8016;49.928;9.372;2023-02-15T09:15:01;17.70;;;12.83;;
15831;SDS011;8016;49.928;9.372;2023-02-15T09:17:27;17.30;;;13.27;;
15831;SDS011;8016;49.928;9.372;2023-02-15T09:19:53;16.50;;;12.20;;
15831;SDS011;8016;49.928;9.372;2023-02-15T09:22:18;16.83;;;12.37;;
15831;SDS011;8016;49.928;9.372;2023-02-15T09:24:44;15.73;;;12.00;;
15831;SDS011;8016;49.928;9.372;2023-02-15T09:27:10;17.87;;;13.90;;
15831;SDS011;8016;49.928;9.372;2023-02-15T09:29:37;17.57;;;12.83;;
15831;SDS011;8016;49.928;9.372;2023-02-15T09:32:03;16.30;;;12.77;;
15831;SDS011;8016;49.928;9.372;2023-02-15T09:34:29;17.13;;;12.70;;
15831;SDS011;8016;49.928;9.372;2023-02-15T09:36:55;17.70;;;13.13;;
15831;SDS011;8016;49.928;9.372;2023-02-15T09:39:22;19.23;;;12.47;;
15831;SDS011;8016;49.928;9.372;2023-02-15T09:50:05;16.30;;;12.60;;
15831;SDS011;8016;49.928;9.372;2023-02-15T09:55:05;15.03;;;12.60;;
15831;SDS011;8016;49.928;9.372;2023-02-15T09:57:41;15.27;;;12.43;;
15831;SDS011;8016;49.928;9.372;2023-02-15T10:00:12;17.00;;;12.77;;
15831;SDS011;8016;49.928;9.372;2023-02-15T10:02:49;16.80;;;13.37;;
15831;SDS011;8016;49.928;9.372;2023-02-15T10:10:35;16.47;;;12.50;;
15831;SDS011;8016;49.928;9.372;2023-02-15T10:15:50;18.60;;;12.93;;
15831;SDS011;8016;49.928;9.372;2023-02-15T10:21:03;17.10;;;13.23;;
15831;SDS011;8016;49.928;9.372;2023-02-15T10:26:20;16.90;;;14.37;;
15831;SDS011;8016;49.928;9.372;2023-02-15T10:29:06;17.90;;;12.70;;
15831;SDS011;8016;49.928;9.372;2023-02-15T10:34:07;17.60;;;13.87;;
15831;SDS011;8016;49.928;9.372;2023-02-15T10:39:25;17.50;;;13.97;;
15831;SDS011;8016;49.928;9.372;2023-02-15T10:46:52;22.63;;;18.00;;
15831;SDS011;8016;49.928;9.372;2023-02-15T10:52:04;17.47;;;12.87;;
15831;SDS011;8016;49.928;9.372;2023-02-15T10:54:37;13.73;;;12.10;;
15831;SDS011;8016;49.928;9.372;2023-02-15T11:07:33;16.77;;;13.30;;
15831;SDS011;8016;49.928;9.372;2023-02-15T11:10:05;19.03;;;13.17;;
15831;SDS011;8016;49.928;9.372;2023-02-15T11:12:33;16.53;;;13.03;;
15831;SDS011;8016;49.928;9.372;2023-02-15T11:17:39;18.97;;;15.60;;
15831;SDS011;8016;49.928;9.372;2023-02-15T11:20:15;18.40;;;12.73;;
15831;SDS011;8016;49.928;9.372;2023-02-15T11:22:43;16.17;;;12.97;;
15831;SDS011;8016;49.928;9.372;2023-02-15T11:25:17;15.47;;;12.60;;
15831;SDS011;8016;49.928;9.372;2023-02-15T11:27:43;17.57;;;13.37;;
15831;SDS011;8016;49.928;9.372;2023-02-15T11:30:12;15.17;;;11.77;;
15831;SDS011;8016;49.928;9.372;2023-02-15T11:32:49;16.57;;;12.90;;
15831;SDS011;8016;49.928;9.372;2023-02-15T11:40:27;15.87;;;12.57;;
15831;SDS011;8016;49.928;9.372;2023-02-15T11:42:58;16.93;;;12.90;;
15831;SDS011;8016;49.928;9.372;2023-02-15T11:45:27;17.03;;;13.97;;
15831;SDS011;8016;49.928;9.372;2023-02-15T11:47:53;17.50;;;14.03;;
15831;SDS011;8016;49.928;9.372;2023-02-15T11:50:22;16.00;;;12.93;;
15831;SDS011;8016;49.928;9.372;2023-02-15T11:52:51;16.73;;;12.63;;
15831;SDS011;8016;49.928;9.372;2023-02-15T11:55:20;15.53;;;12.57;;
15831;SDS011;8016;49.928;9.372;2023-02-15T12:00:35;15.60;;;12.60;;
15831;SDS011;8016;49.928;9.372;2023-02-15T12:05:49;16.30;;;13.20;;
15831;SDS011;8016;49.928;9.372;2023-02-15T12:08:19;17.20;;;13.73;;
15831;SDS011;8016;49.928;9.372;2023-02-15T12:13:16;15.47;;;12.93;;
15831;SDS011;8016;49.928;9.372;2023-02-15T12:15:43;15.60;;;12.63;;
15831;SDS011;8016;49.928;9.372;2023-02-15T12:20:57;16.80;;;12.93;;
15831;SDS011;8016;49.928;9.372;2023-02-15T12:23:24;15.33;;;12.70;;
15831;SDS011;8016;49.928;9.372;2023-02-15T12:25:53;14.40;;;11.93;;
15831;SDS011;8016;49.928;9.372;2023-02-15T12:30:45;15.07;;;12.43;;
15831;SDS011;8016;49.928;9.372;2023-02-15T12:33:17;15.37;;;12.97;;
15831;SDS011;8016;49.928;9.372;2023-02-15T12:35:46;17.43;;;13.60;;
15831;SDS011;8016;49.928;9.372;2023-02-15T12:40:40;16.27;;;12.83;;
15831;SDS011;8016;49.928;9.372;2023-02-15T12:43:26;17.13;;;12.90;;
15831;SDS011;8016;49.928;9.372;2023-02-15T12:45:52;30.47;;;14.73;;
15831;SDS011;8016;49.928;9.372;2023-02-15T12:48:19;17.83;;;13.50;;
15831;SDS011;8016;49.928;9.372;2023-02-15T12:53:21;16.97;;;13.40;;
15831;SDS011;8016;49.928;9.372;2023-02-15T12:55:55;19.90;;;13.47;;
15831;SDS011;8016;49.928;9.372;2023-02-15T12:58:25;17.80;;;13.83;;
15831;SDS011;8016;49.928;9.372;2023-02-15T13:03:58;18.80;;;14.77;;
15831;SDS011;8016;49.928;9.372;2023-02-15T13:06:25;20.30;;;17.80;;
15831;SDS011;8016;49.928;9.372;2023-02-15T13:08:55;16.73;;;13.87;;
15831;SDS011;8016;49.928;9.372;2023-02-15T13:11:26;18.67;;;14.27;;
15831;SDS011;8016;49.928;9.372;2023-02-15T13:14:00;19.50;;;14.73;;
15831;SDS011;8016;49.928;9.372;2023-02-15T13:16:28;19.13;;;14.17;;
15831;SDS011;8016;49.928;9.372;2023-02-15T13:18:55;17.87;;;14.23;;
15831;SDS011;8016;49.928;9.372;2023-02-15T13:21:23;16.93;;;13.27;;
15831;SDS011;8016;49.928;9.372;2023-02-15T13:23:56;20.07;;;14.67;;
15831;SDS011;8016;49.928;9.372;2023-02-15T13:26:23;30.67;;;16.20;;
15831;SDS011;8016;49.928;9.372;2023-02-15T13:28:55;17.50;;;13.83;;
15831;SDS011;8016;49.928;9.372;2023-02-15T13:31:26;20.10;;;14.53;;
15831;SDS011;8016;49.928;9.372;2023-02-15T13:34:03;19.87;;;15.30;;
15831;SDS011;8016;49.928;9.372;2023-02-15T13:39:18;19.63;;;15.53;;
15831;SDS011;8016;49.928;9.372;2023-02-15T13:41:51;19.00;;;14.53;;
15831;SDS011;8016;49.928;9.372;2023-02-15T13:44:21;18.83;;;14.00;;
15831;SDS011;8016;49.928;9.372;2023-02-15T13:54:47;23.30;;;14.37;;
15831;SDS011;8016;49.928;9.372;2023-02-15T13:59:52;19.80;;;15.20;;
15831;SDS011;8016;49.928;9.372;2023-02-15T14:05:05;17.90;;;14.20;;
15831;SDS011;8016;49.928;9.372;2023-02-15T14:10:23;17.80;;;13.40;;
15831;SDS011;8016;49.928;9.372;2023-02-15T14:12:58;18.00;;;14.43;;
15831;SDS011;8016;49.928;9.372;2023-02-15T14:23:29;19.53;;;14.27;;
15831;SDS011;8016;49.928;9.372;2023-02-15T14:26:05;22.40;;;14.13;;
15831;SDS011;8016;49.928;9.372;2023-02-15T14:28:43;18.03;;;14.00;;
15831;SDS011;8016;49.928;9.372;2023-02-15T14:31:12;17.37;;;13.70;;
15831;SDS011;8016;49.928;9.372;2023-02-15T14:33:39;21.17;;;16.77;;
15831;SDS011;8016;49.928;9.372;2023-02-15T14:36:08;18.90;;;14.00;;
15831;SDS011;8016;49.928;9.372;2023-02-15T14:38:50;21.93;;;15.57;;
15831;SDS011;8016;49.928;9.372;2023-02-15T14:41:18;21.73;;;16.97;;
15831;SDS011;8016;49.928;9.372;2023-02-15T14:48:46;22.47;;;16.37;;
15831;SDS011;8016;49.928;9.372;2023-02-15T14:53:57;21.20;;;16.20;;
15831;SDS011;8016;49.928;9.372;2023-02-15T14:56:23;20.23;;;15.97;;
15831;SDS011;8016;49.928;9.372;2023-02-15T15:01:26;21.77;;;17.10;;
15831;SDS011;8016;49.928;9.372;2023-02-15T15:04:00;20.93;;;16.07;;
15831;SDS011;8016;49.928;9.372;2023-02-15T15:06:27;23.97;;;17.07;;
15831;SDS011;8016;49.928;9.372;2023-02-15T15:08:55;27.57;;;17.67;;
15831;SDS011;8016;49.928;9.372;2023-02-15T15:13:57;23.57;;;17.53;;
15831;SDS011;8016;49.928;9.372;2023-02-15T15:19:02;24.73;;;18.33;;
15831;SDS011;8016;49.928;9.372;2023-02-15T15:29:44;26.87;;;18.87;;
15831;SDS011;8016;49.928;9.372;2023-02-15T15:32:10;24.67;;;17.93;;
15831;SDS011;8016;49.928;9.372;2023-02-15T15:34:45;26.07;;;19.13;;
15831;SDS011;8016;49.928;9.372;2023-02-15T15:42:32;23.93;;;18.07;;
15831;SDS011;8016;49.928;9.372;2023-02-15T15:50:14;26.30;;;18.67;;
15831;SDS011;8016;49.928;9.372;2023-02-15T15:52:41;22.03;;;17.07;;
15831;SDS011;8016;49.928;9.372;2023-02-15T15:55:17;23.83;;;17.97;;
15831;SDS011;8016;49.928;9.372;2023-02-15T15:57:44;25.13;;;18.73;;
15831;SDS011;8016;49.928;9.372;2023-02-15T16:00:58;29.50;;;21.80;;
15831;SDS011;8016;49.928;9.372;2023-02-15T16:03:03;26.63;;;18.47;;
15831;SDS011;8016;49.928;9.372;2023-02-15T16:05:34;28.83;;;19.23;;
15831;SDS011;8016;49.928;9.372;2023-02-15T16:08:00;25.70;;;17.97;;
15831;SDS011;8016;49.928;9.372;2023-02-15T16:10:27;27.03;;;19.93;;
15831;SDS011;8016;49.928;9.372;2023-02-15T16:12:53;27.87;;;19.63;;
15831;SDS011;8016;49.928;9.372;2023-02-15T16:15:21;30.00;;;20.00;;
15831;SDS011;8016;49.928;9.372;2023-02-15T16:17:52;29.03;;;20.03;;
15831;SDS011;8016;49.928;9.372;2023-02-15T16:22:46;28.97;;;19.93;;
15831;SDS011;8016;49.928;9.372;2023-02-15T16:27:46;27.80;;;20.30;;
15831;SDS011;8016;49.928;9.372;2023-02-15T16:30:23;27.40;;;20.00;;
15831;SDS011;8016;49.928;9.372;2023-02-15T16:32:52;29.90;;;22.57;;
15831;SDS011;8016;49.928;9.372;2023-02-15T16:35:19;28.83;;;20.93;;
15831;SDS011;8016;49.928;9.372;2023-02-15T16:37:45;31.20;;;21.03;;
15831;SDS011;8016;49.928;9.372;2023-02-15T16:40:45;27.63;;;19.33;;
15831;SDS011;8016;49.928;9.372;2023-02-15T16:43:04;30.67;;;21.47;;
15831;SDS011;8016;49.928;9.372;2023-02-15T16:45:34;30.00;;;21.40;;
15831;SDS011;8016;49.928;9.372;2023-02-15T16:48:05;33.70;;;20.57;;
15831;SDS011;8016;49.928;9.372;2023-02-15T16:50:36;30.80;;;20.80;;
15831;SDS011;8016;49.928;9.372;2023-02-15T16:53:03;32.80;;;22.00;;
15831;SDS011;8016;49.928;9.372;2023-02-15T16:55:38;34.40;;;23.37;;
15831;SDS011;8016;49.928;9.372;2023-02-15T16:58:06;35.33;;;23.30;;
15831;SDS011;8016;49.928;9.372;2023-02-15T17:00:36;33.20;;;23.07;;
15831;SDS011;8016;49.928;9.372;2023-02-15T17:05:33;38.77;;;22.60;;
15831;SDS011;8016;49.928;9.372;2023-02-15T17:08:16;38.47;;;23.77;;
15831;SDS011;8016;49.928;9.372;2023-02-15T17:10:46;37.23;;;24.10;;
15831;SDS011;8016;49.928;9.372;2023-02-15T17:13:26;30.80;;;20.33;;
15831;SDS011;8016;49.928;9.372;2023-02-15T17:18:29;34.23;;;23.87;;
15831;SDS011;8016;49.928;9.372;2023-02-15T17:20:57;33.73;;;22.97;;
15831;SDS011;8016;49.928;9.372;2023-02-15T17:25:53;31.90;;;21.53;;
15831;SDS011;8016;49.928;9.372;2023-02-15T17:28:27;31.87;;;21.37;;
15831;SDS011;8016;49.928;9.372;2023-02-15T17:30:54;32.80;;;22.43;;
15831;SDS011;8016;49.928;9.372;2023-02-15T17:33:22;40.33;;;25.00;;
15831;SDS011;8016;49.928;9.372;2023-02-15T17:38:30;31.70;;;20.77;;
15831;SDS011;8016;49.928;9.372;2023-02-15T17:40:56;31.40;;;20.73;;
15831;SDS011;8016;49.928;9.372;2023-02-15T17:43:23;28.23;;;21.97;;
15831;SDS011;8016;49.928;9.372;2023-02-15T17:45:49;34.73;;;19.70;;